Time,TemperatureF,DewpointF,PressureIn,WindDirection,WindDirectionDegrees,WindSpeedMPH,WindSpeedGustMPH,Humidity,HourlyPrecipIn,Conditions,Clouds,dailyrainin,SoftwareType,DateUTC
2013-01-09 00:31:00,27.1,22.0,29.93,South,180,5.4,5.4,81,0.00,,,0.00,WUHU21623XXSP,2013-01-09 05:31:00,
2013-01-09 01:31:00,27.3,22.5,29.89,SSW,203,7.6,7.6,82,0.00,,,0.00,WUHU21623XXSP,2013-01-09 06:31:00,
2013-01-09 02:31:00,28.5,23.7,29.86,SSW,203,7.4,7.4,82,0.00,,,0.00,WUHU21623XXSP,2013-01-09 07:31:00,
2013-01-09 03:31:00,30.3,25.2,29.86,South,180,3.8,3.8,81,0.00,,,0.00,WUHU21623XXSP,2013-01-09 08:31:00,
2013-01-09 04:31:00,31.4,25.7,29.82,SSW,203,8.9,8.9,79,0.00,,,0.00,WUHU21623XXSP,2013-01-09 09:31:00,
2013-01-09 05:31:00,32.8,27.3,29.79,South,180,5.8,5.8,80,0.00,,,0.00,WUHU21623XXSP,2013-01-09 10:31:00,
2013-01-09 06:31:00,33.2,28.6,29.79,South,180,6.7,6.7,83,0.00,,,0.00,WUHU21623XXSP,2013-01-09 11:31:00,
2013-01-09 07:31:00,33.2,28.9,29.79,SSW,203,9.4,9.4,84,0.00,,,0.00,WUHU21623XXSP,2013-01-09 12:31:00,
2013-01-09 08:31:00,33.9,29.6,29.81,WNW,293,4.3,4.3,84,0.00,,,0.00,WUHU21623XXSP,2013-01-09 13:31:00,
2013-01-09 09:31:00,36.1,30.8,29.84,South,180,16.1,16.1,81,0.00,,,0.00,WUHU21623XXSP,2013-01-09 14:31:00,
2013-01-09 10:31:00,37.5,31.6,29.86,WSW,248,8.7,8.7,79,0.00,,,0.00,WUHU21623XXSP,2013-01-09 15:31:00,
2013-01-09 11:21:00,39.0,32.1,29.87,West,270,6.3,6.3,76,0.00,,,0.00,WUHU21623XXSP,2013-01-09 16:21:00,
2013-01-09 11:26:00,39.1,31.9,29.86,South,180,5.1,6.3,75,0.00,,,0.00,WUHU21623XXSP,2013-01-09 16:26:00,
2013-01-09 11:32:00,39.3,32.1,29.86,SSW,202,5.4,5.4,75,0.00,,,0.00,WUHU21623XXSP,2013-01-09 16:32:00,
2013-01-09 11:37:00,39.3,32.1,29.87,WSW,247,6.5,6.5,75,0.00,,,0.00,WUHU21623XXSP,2013-01-09 16:37:00,
2013-01-09 11:42:00,39.3,31.8,29.87,SSE,157,5.1,6.5,74,0.00,,,0.00,WUHU21623XXSP,2013-01-09 16:42:00,
2013-01-09 11:47:00,39.3,31.4,29.87,WSW,247,9.4,9.4,73,0.00,,,0.00,WUHU21623XXSP,2013-01-09 16:47:00,
2013-01-09 11:52:00,39.5,31.6,29.87,SSW,202,5.6,9.4,73,0.00,,,0.00,WUHU21623XXSP,2013-01-09 16:52:00,
2013-01-09 11:57:00,39.7,31.8,29.87,South,180,11.6,11.6,73,0.00,,,0.00,WUHU21623XXSP,2013-01-09 16:57:00,
2013-01-09 12:02:00,39.7,31.8,29.87,South,180,0.0,11.6,73,0.00,,,0.00,WUHU21623XXSP,2013-01-09 17:02:00,
2013-01-09 12:07:00,39.9,32.0,29.87,WSW,247,10.7,10.7,73,0.00,,,0.00,WUHU21623XXSP,2013-01-09 17:07:00,
2013-01-09 12:12:00,39.9,31.7,29.87,SSW,202,11.6,11.6,72,0.00,,,0.00,WUHU21623XXSP,2013-01-09 17:12:00,
2013-01-09 12:17:00,40.0,32.1,29.87,WNW,292,0.0,11.6,73,0.00,,,0.00,WUHU21623XXSP,2013-01-09 17:17:00,
2013-01-09 12:22:00,40.0,31.8,29.86,SSW,202,7.6,7.6,72,0.00,,,0.00,WUHU21623XXSP,2013-01-09 17:22:00,
2013-01-09 12:27:00,40.0,31.8,29.86,SW,225,7.8,7.8,72,0.00,,,0.00,WUHU21623XXSP,2013-01-09 17:27:00,
2013-01-09 12:32:00,40.2,31.6,29.86,South,180,13.6,13.6,71,0.00,,,0.00,WUHU21623XXSP,2013-01-09 17:32:00,
2013-01-09 12:37:00,40.2,31.6,29.85,WNW,292,8.7,13.6,71,0.00,,,0.00,WUHU21623XXSP,2013-01-09 17:37:00,
2013-01-09 12:42:00,40.4,31.8,29.86,WNW,292,8.7,8.7,71,0.00,,,0.00,WUHU21623XXSP,2013-01-09 17:42:00,
2013-01-09 12:47:00,40.6,31.7,29.86,West,270,8.5,8.7,70,0.00,,,0.00,WUHU21623XXSP,2013-01-09 17:47:00,
2013-01-09 12:52:00,40.6,31.3,29.86,SW,225,10.7,10.7,69,0.00,,,0.00,WUHU21623XXSP,2013-01-09 17:52:00,
2013-01-09 12:57:00,40.9,31.6,29.86,South,180,12.8,12.8,69,0.00,,,0.00,WUHU21623XXSP,2013-01-09 17:57:00,
2013-01-09 13:02:00,40.9,31.6,29.85,South,180,14.5,14.5,69,0.00,,,0.00,WUHU21623XXSP,2013-01-09 18:02:00,
2013-01-09 13:07:00,40.9,31.2,29.86,South,180,6.3,14.5,68,0.00,,,0.00,WUHU21623XXSP,2013-01-09 18:07:00,
2013-01-09 13:12:00,41.1,31.4,29.86,South,180,15.7,15.7,68,0.00,,,0.00,WUHU21623XXSP,2013-01-09 18:12:00,
2013-01-09 13:17:00,41.1,31.1,29.85,SE,135,2.0,15.7,67,0.00,,,0.00,WUHU21623XXSP,2013-01-09 18:17:00,
2013-01-09 13:22:00,41.3,31.3,29.85,SSW,202,8.1,8.1,67,0.00,,,0.00,WUHU21623XXSP,2013-01-09 18:22:00,
2013-01-09 13:27:00,41.5,31.1,29.85,West,270,12.3,12.3,66,0.00,,,0.00,WUHU21623XXSP,2013-01-09 18:27:00,
2013-01-09 13:32:00,41.5,31.1,29.85,South,180,13.9,13.9,66,0.00,,,0.00,WUHU21623XXSP,2013-01-09 18:32:00,
2013-01-09 13:37:00,41.7,31.3,29.85,West,270,6.7,13.9,66,0.00,,,0.00,WUHU21623XXSP,2013-01-09 18:37:00,
2013-01-09 13:41:00,41.8,31.4,29.86,WSW,247,4.7,6.7,66,0.00,,,0.00,WUHU21623XXSP,2013-01-09 18:41:00,
2013-01-09 13:44:00,42.0,31.2,29.86,SSE,157,8.3,8.3,65,0.00,,,0.00,WUHU21623XXSP,2013-01-09 18:44:00,
2013-01-09 13:48:00,42.0,30.8,29.85,WSW,247,7.2,8.3,64,0.00,,,0.00,WUHU21623XXSP,2013-01-09 18:48:00,
2013-01-09 13:53:00,42.0,30.4,29.86,SSW,202,6.3,7.2,63,0.00,,,0.00,WUHU21623XXSP,2013-01-09 18:53:00,
2013-01-09 13:58:00,42.0,30.4,29.86,WSW,247,6.0,6.3,63,0.00,,,0.00,WUHU21623XXSP,2013-01-09 18:58:00,
2013-01-09 14:03:00,42.2,30.2,29.87,SSW,202,6.7,6.7,62,0.00,,,0.00,WUHU21623XXSP,2013-01-09 19:03:00,
2013-01-09 14:08:00,42.2,30.2,29.87,WSW,247,6.9,6.9,62,0.00,,,0.00,WUHU21623XXSP,2013-01-09 19:08:00,
2013-01-09 14:13:00,42.2,30.2,29.87,SW,225,8.7,8.7,62,0.00,,,0.00,WUHU21623XXSP,2013-01-09 19:13:00,
2013-01-09 14:18:00,42.2,29.8,29.87,SSE,157,7.2,8.7,61,0.00,,,0.00,WUHU21623XXSP,2013-01-09 19:18:00,
2013-01-09 14:23:00,42.2,29.8,29.87,WSW,247,6.5,7.2,61,0.00,,,0.00,WUHU21623XXSP,2013-01-09 19:23:00,
2013-01-09 14:28:00,42.4,30.0,29.87,SSW,202,9.2,9.2,61,0.00,,,0.00,WUHU21623XXSP,2013-01-09 19:28:00,
2013-01-09 14:33:00,42.4,29.6,29.88,SW,225,5.6,9.2,60,0.00,,,0.00,WUHU21623XXSP,2013-01-09 19:33:00,
2013-01-09 14:38:00,42.4,29.1,29.89,West,270,8.5,8.5,59,0.00,,,0.00,WUHU21623XXSP,2013-01-09 19:38:00,
2013-01-09 14:45:00,42.2,29.0,29.89,West,270,6.3,8.5,59,0.00,,,0.00,WUHU21623XXSP,2013-01-09 19:45:00,
2013-01-09 14:50:00,42.2,29.0,29.89,West,270,7.2,7.2,59,0.00,,,0.00,WUHU21623XXSP,2013-01-09 19:50:00,
2013-01-09 14:55:00,42.2,29.0,29.89,West,270,8.3,8.3,59,0.00,,,0.00,WUHU21623XXSP,2013-01-09 19:55:00,
2013-01-09 15:00:00,42.2,29.0,29.90,SW,225,6.7,8.3,59,0.00,,,0.00,WUHU21623XXSP,2013-01-09 20:00:00,
2013-01-09 15:06:00,42.2,29.0,29.91,SSE,157,5.1,6.7,59,0.00,,,0.00,WUHU21623XXSP,2013-01-09 20:06:00,
2013-01-09 15:11:00,42.2,29.0,29.92,SSE,157,5.1,5.1,59,0.00,,,0.00,WUHU21623XXSP,2013-01-09 20:11:00,
2013-01-09 15:17:00,42.0,28.3,29.92,WNW,292,5.6,5.6,58,0.00,,,0.00,WUHU21623XXSP,2013-01-09 20:17:00,
2013-01-09 15:23:00,42.0,28.8,29.93,South,180,6.5,6.5,59,0.00,,,0.00,WUHU21623XXSP,2013-01-09 20:23:00,
2013-01-09 15:28:00,41.8,28.6,29.94,WSW,247,6.3,6.5,59,0.00,,,0.00,WUHU21623XXSP,2013-01-09 20:28:00,
2013-01-09 15:33:00,41.7,28.1,29.94,South,180,8.3,8.3,58,0.00,,,0.00,WUHU21623XXSP,2013-01-09 20:33:00,
2013-01-09 15:38:00,41.7,28.5,29.94,WNW,292,18.3,18.3,59,0.00,,,0.00,WUHU21623XXSP,2013-01-09 20:38:00,
2013-01-09 15:43:00,41.7,28.5,29.94,West,270,5.8,18.3,59,0.00,,,0.00,WUHU21623XXSP,2013-01-09 20:43:00,
2013-01-09 15:48:00,41.7,28.5,29.95,WNW,292,8.7,8.7,59,0.00,,,0.00,WUHU21623XXSP,2013-01-09 20:48:00,
2013-01-09 15:53:00,41.7,28.9,29.95,WNW,292,13.0,13.0,60,0.00,,,0.00,WUHU21623XXSP,2013-01-09 20:53:00,
2013-01-09 15:58:00,41.5,28.3,29.95,SSW,202,6.5,13.0,59,0.00,,,0.00,WUHU21623XXSP,2013-01-09 20:58:00,
2013-01-09 16:03:00,41.5,28.7,29.95,West,270,6.5,6.5,60,0.00,,,0.00,WUHU21623XXSP,2013-01-09 21:03:00,
2013-01-09 16:08:00,41.1,28.3,29.96,WSW,247,11.4,11.4,60,0.00,,,0.00,WUHU21623XXSP,2013-01-09 21:08:00,
2013-01-09 16:13:00,41.1,28.3,29.97,SW,225,1.6,11.4,60,0.00,,,0.00,WUHU21623XXSP,2013-01-09 21:13:00,
2013-01-09 16:18:00,41.1,28.7,29.97,West,270,4.9,15.9,61,0.00,,,0.00,WUHU21623XXSP,2013-01-09 21:18:00,
2013-01-09 16:23:00,40.6,28.3,29.97,West,270,12.8,15.9,61,0.00,,,0.00,WUHU21623XXSP,2013-01-09 21:23:00,
2013-01-09 16:28:00,40.6,28.3,29.98,NW,315,7.2,12.8,61,0.00,,,0.00,WUHU21623XXSP,2013-01-09 21:28:00,
2013-01-09 16:34:00,40.0,28.1,29.99,WNW,292,2.2,7.2,62,0.00,,,0.00,WUHU21623XXSP,2013-01-09 21:34:00,
2013-01-09 16:43:00,39.7,28.2,30.00,WSW,247,6.3,6.3,63,0.00,,,0.00,WUHU21623XXSP,2013-01-09 21:43:00,
2013-01-09 16:48:00,39.3,27.8,30.00,South,180,8.7,8.7,63,0.00,,,0.00,WUHU21623XXSP,2013-01-09 21:48:00,
2013-01-09 16:53:00,39.1,27.6,30.00,WNW,292,8.7,8.7,63,0.00,,,0.00,WUHU21623XXSP,2013-01-09 21:53:00,
2013-01-09 16:58:00,39.1,27.6,30.01,WNW,292,8.5,8.7,63,0.00,,,0.00,WUHU21623XXSP,2013-01-09 21:58:00,
2013-01-09 17:03:00,38.6,27.2,30.01,NW,315,7.6,8.7,63,0.00,,,0.00,WUHU21623XXSP,2013-01-09 22:03:00,
2013-01-09 17:08:00,38.4,27.0,30.01,NW,315,7.6,7.6,63,0.00,,,0.00,WUHU21623XXSP,2013-01-09 22:08:00,
2013-01-09 17:13:00,38.2,26.8,30.02,West,270,4.5,7.6,63,0.00,,,0.00,WUHU21623XXSP,2013-01-09 22:13:00,
2013-01-09 17:18:00,38.1,26.7,30.02,West,270,7.6,7.6,63,0.00,,,0.00,WUHU21623XXSP,2013-01-09 22:18:00,
2013-01-09 17:23:00,37.9,26.5,30.02,WNW,292,7.2,7.6,63,0.00,,,0.00,WUHU21623XXSP,2013-01-09 22:23:00,
2013-01-09 17:28:00,37.7,26.7,30.02,WNW,292,7.2,7.2,64,0.00,,,0.00,WUHU21623XXSP,2013-01-09 22:28:00,
2013-01-09 17:33:00,37.5,26.1,30.02,West,270,6.0,7.2,63,0.00,,,0.00,WUHU21623XXSP,2013-01-09 22:33:00,
2013-01-09 17:37:00,37.5,26.1,30.02,WNW,292,8.7,8.7,63,0.00,,,0.00,WUHU21623XXSP,2013-01-09 22:37:00,
2013-01-09 17:42:00,37.3,25.9,30.04,WNW,292,4.9,8.7,63,0.00,,,0.00,WUHU21623XXSP,2013-01-09 22:42:00,
2013-01-09 17:47:00,37.0,26.0,30.04,West,270,6.9,7.6,64,0.00,,,0.00,WUHU21623XXSP,2013-01-09 22:47:00,
2013-01-09 17:52:00,37.0,26.0,30.05,SSW,202,6.0,6.9,64,0.00,,,0.00,WUHU21623XXSP,2013-01-09 22:52:00,
2013-01-09 17:57:00,36.6,26.0,30.05,WSW,247,4.0,6.0,65,0.00,,,0.00,WUHU21623XXSP,2013-01-09 22:57:00,
2013-01-09 18:02:00,36.6,26.0,30.05,West,270,7.6,7.6,65,0.00,,,0.00,WUHU21623XXSP,2013-01-09 23:02:00,
2013-01-09 18:07:00,36.4,25.8,30.05,SSW,202,5.1,7.6,65,0.00,,,0.00,WUHU21623XXSP,2013-01-09 23:07:00,
2013-01-09 18:12:00,36.4,25.8,30.06,WNW,292,6.9,6.9,65,0.00,,,0.00,WUHU21623XXSP,2013-01-09 23:12:00,
2013-01-09 18:17:00,36.3,25.7,30.06,WNW,292,6.9,6.9,65,0.00,,,0.00,WUHU21623XXSP,2013-01-09 23:17:00,
2013-01-09 18:22:00,36.1,25.9,30.07,West,270,4.3,6.9,66,0.00,,,0.00,WUHU21623XXSP,2013-01-09 23:22:00,
2013-01-09 18:27:00,35.7,25.2,30.08,SSW,202,3.6,4.3,65,0.00,,,0.00,WUHU21623XXSP,2013-01-09 23:27:00,
2013-01-09 18:32:00,35.7,25.5,30.08,WNW,292,15.9,15.9,66,0.00,,,0.00,WUHU21623XXSP,2013-01-09 23:32:00,
2013-01-09 18:37:00,35.7,25.5,30.09,SW,225,2.9,15.9,66,0.00,,,0.00,WUHU21623XXSP,2013-01-09 23:37:00,
2013-01-09 18:42:00,35.5,25.3,30.09,West,270,6.9,7.2,66,0.00,,,0.00,WUHU21623XXSP,2013-01-09 23:42:00,
2013-01-09 18:47:00,35.5,25.3,30.10,NW,315,3.6,7.2,66,0.00,,,0.00,WUHU21623XXSP,2013-01-09 23:47:00,
2013-01-09 18:53:00,35.4,25.2,30.11,West,270,2.0,3.6,66,0.00,,,0.00,WUHU21623XXSP,2013-01-09 23:53:00,
2013-01-09 18:58:00,35.4,25.2,30.11,WSW,247,2.7,2.7,66,0.00,,,0.00,WUHU21623XXSP,2013-01-09 23:58:00,
2013-01-09 19:03:00,35.4,25.2,30.11,SW,225,6.7,6.7,66,0.00,,,0.00,WUHU21623XXSP,2013-01-10 00:03:00,
2013-01-09 19:12:00,35.2,25.0,30.13,West,270,4.0,4.9,66,0.00,,,0.00,WUHU21623XXSP,2013-01-10 00:12:00,
2013-01-09 19:19:00,35.0,25.2,30.13,SW,225,4.7,4.7,67,0.00,,,0.00,WUHU21623XXSP,2013-01-10 00:19:00,
2013-01-09 22:08:00,30.7,22.5,30.22,West,270,0.0,0.0,71,0.00,,,0.00,WUHU21623XXSP,2013-01-10 03:08:00,
2013-01-09 22:17:00,30.3,22.4,30.23,West,270,0.0,0.0,72,0.00,,,0.00,WUHU21623XXSP,2013-01-10 03:17:00,
2013-01-09 22:25:00,30.0,22.1,30.23,West,270,0.0,0.0,72,0.00,,,0.00,WUHU21623XXSP,2013-01-10 03:25:00,
2013-01-09 22:30:00,29.8,21.9,30.23,West,270,0.0,0.0,72,0.00,,,0.00,WUHU21623XXSP,2013-01-10 03:30:00,
2013-01-09 22:35:00,29.6,22.1,30.23,West,270,0.0,0.0,73,0.00,,,0.00,WUHU21623XXSP,2013-01-10 03:35:00,
2013-01-09 22:42:00,29.4,21.9,30.23,West,270,0.0,0.0,73,0.00,,,0.00,WUHU21623XXSP,2013-01-10 03:42:00,
2013-01-09 22:49:00,29.2,21.7,30.23,West,270,0.0,0.0,73,0.00,,,0.00,WUHU21623XXSP,2013-01-10 03:49:00,
2013-01-09 22:55:00,28.9,21.7,30.23,West,270,0.0,0.0,74,0.00,,,0.00,WUHU21623XXSP,2013-01-10 03:55:00,
2013-01-09 23:31:00,27.6,21.1,30.24,West,270,0.0,0.0,76,0.00,,,0.00,WUHU21623XXSP,2013-01-10 04:31:00,